sensor_id;sensor_type;location;lat;lon;timestamp;P1;durP1;ratioP1;P2;durP2;ratioP2
15266;SDS011;7735;49.144;8.668;2023-06-24T00:00:19;7.63;;;3.93;;
15266;SDS011;7735;49.144;8.668;2023-06-24T00:02:46;4.87;;;3.93;;
15266;SDS011;7735;49.144;8.668;2023-06-24T00:05:13;7.43;;;4.63;;
15266;SDS011;7735;49.144;8.668;2023-06-24T00:07:39;6.13;;;4.70;;
15266;SDS011;7735;49.144;8.668;2023-06-24T00:10:11;6.83;;;4.43;;
15266;SDS011;7735;49.144;8.668;2023-06-24T00:12:38;7.13;;;5.10;;
15266;SDS011;7735;49.144;8.668;2023-06-24T00:15:06;5.43;;;3.87;;
15266;SDS011;7735;49.144;8.668;2023-06-24T00:17:34;5.27;;;3.70;;
15266;SDS011;7735;49.144;8.668;2023-06-24T00:20:01;6.47;;;4.20;;
15266;SDS011;7735;49.144;8.668;2023-06-24T00:22:34;4.83;;;3.87;;
15266;SDS011;7735;49.144;8.668;2023-06-24T00:25:00;5.53;;;3.77;;
15266;SDS011;7735;49.144;8.668;2023-06-24T00:27:28;5.67;;;3.90;;
15266;SDS011;7735;49.144;8.668;2023-06-24T00:29:55;5.63;;;4.23;;
15266;SDS011;7735;49.144;8.668;2023-06-24T00:32:22;7.77;;;3.97;;
15266;SDS011;7735;49.144;8.668;2023-06-24T00:34:48;6.33;;;4.13;;
15266;SDS011;7735;49.144;8.668;2023-06-24T00:37:15;5.37;;;3.80;;
15266;SDS011;7735;49.144;8.668;2023-06-24T00:39:42;8.10;;;4.40;;
15266;SDS011;7735;49.144;8.668;2023-06-24T00:42:08;5.73;;;4.00;;
15266;SDS011;7735;49.144;8.668;2023-06-24T00:44:36;4.87;;;4.03;;
15266;SDS011;7735;49.144;8.668;2023-06-24T00:47:04;6.47;;;3.83;;
15266;SDS011;7735;49.144;8.668;2023-06-24T00:49:33;5.47;;;3.97;;
15266;SDS011;7735;49.144;8.668;2023-06-24T00:51:59;6.30;;;4.03;;
15266;SDS011;7735;49.144;8.668;2023-06-24T00:54:26;7.67;;;4.03;;
15266;SDS011;7735;49.144;8.668;2023-06-24T00:56:56;9.33;;;4.00;;
15266;SDS011;7735;49.144;8.668;2023-06-24T00:59:22;6.23;;;3.77;;
15266;SDS011;7735;49.144;8.668;2023-06-24T01:01:55;6.03;;;3.80;;
15266;SDS011;7735;49.144;8.668;2023-06-24T01:04:22;7.93;;;4.13;;
15266;SDS011;7735;49.144;8.668;2023-06-24T01:06:50;5.57;;;4.03;;
15266;SDS011;7735;49.144;8.668;2023-06-24T01:09:16;6.23;;;4.57;;
15266;SDS011;7735;49.144;8.668;2023-06-24T01:11:43;7.60;;;4.17;;
15266;SDS011;7735;49.144;8.668;2023-06-24T01:14:10;5.40;;;4.03;;
15266;SDS011;7735;49.144;8.668;2023-06-24T01:16:37;6.50;;;4.53;;
15266;SDS011;7735;49.144;8.668;2023-06-24T01:19:17;8.30;;;4.07;;
15266;SDS011;7735;49.144;8.668;2023-06-24T01:22:06;6.37;;;4.10;;
15266;SDS011;7735;49.144;8.668;2023-06-24T01:24:48;6.50;;;4.30;;
15266;SDS011;7735;49.144;8.668;2023-06-24T01:27:40;9.87;;;4.23;;
15266;SDS011;7735;49.144;8.668;2023-06-24T01:30:28;5.80;;;4.20;;
15266;SDS011;7735;49.144;8.668;2023-06-24T01:33:24;7.33;;;4.10;;
15266;SDS011;7735;49.144;8.668;2023-06-24T01:35:57;9.40;;;4.37;;
15266;SDS011;7735;49.144;8.668;2023-06-24T01:38:30;6.00;;;4.27;;
15266;SDS011;7735;49.144;8.668;2023-06-24T01:41:02;7.43;;;4.30;;
15266;SDS011;7735;49.144;8.668;2023-06-24T01:43:31;5.73;;;4.07;;
15266;SDS011;7735;49.144;8.668;2023-06-24T01:46:00;6.27;;;4.23;;
15266;SDS011;7735;49.144;8.668;2023-06-24T01:48:32;8.13;;;4.53;;
15266;SDS011;7735;49.144;8.668;2023-06-24T01:51:03;7.70;;;4.07;;
15266;SDS011;7735;49.144;8.668;2023-06-24T01:53:34;5.60;;;3.83;;
15266;SDS011;7735;49.144;8.668;2023-06-24T01:56:05;6.13;;;4.00;;
15266;SDS011;7735;49.144;8.668;2023-06-24T01:58:33;6.07;;;4.17;;
15266;SDS011;7735;49.144;8.668;2023-06-24T02:01:01;7.93;;;4.20;;
15266;SDS011;7735;49.144;8.668;2023-06-24T02:03:30;8.57;;;4.77;;
15266;SDS011;7735;49.144;8.668;2023-06-24T02:05:58;6.03;;;4.23;;
15266;SDS011;7735;49.144;8.668;2023-06-24T02:08:27;6.43;;;4.20;;
15266;SDS011;7735;49.144;8.668;2023-06-24T02:10:56;5.83;;;3.90;;
15266;SDS011;7735;49.144;8.668;2023-06-24T02:13:24;6.50;;;4.10;;
15266;SDS011;7735;49.144;8.668;2023-06-24T02:15:52;7.37;;;4.10;;
15266;SDS011;7735;49.144;8.668;2023-06-24T02:18:20;9.73;;;3.80;;
15266;SDS011;7735;49.144;8.668;2023-06-24T02:20:49;6.13;;;4.33;;
15266;SDS011;7735;49.144;8.668;2023-06-24T02:23:17;8.37;;;4.17;;
15266;SDS011;7735;49.144;8.668;2023-06-24T02:25:45;6.90;;;3.97;;
15266;SDS011;7735;49.144;8.668;2023-06-24T02:28:13;6.77;;;4.50;;
15266;SDS011;7735;49.144;8.668;2023-06-24T02:30:40;4.63;;;3.53;;
15266;SDS011;7735;49.144;8.668;2023-06-24T02:33:08;10.70;;;4.57;;
15266;SDS011;7735;49.144;8.668;2023-06-24T02:35:36;6.90;;;4.10;;
15266;SDS011;7735;49.144;8.668;2023-06-24T02:38:04;6.00;;;3.97;;
15266;SDS011;7735;49.144;8.668;2023-06-24T02:40:31;5.77;;;4.10;;
15266;SDS011;7735;49.144;8.668;2023-06-24T02:42:59;6.17;;;4.00;;
15266;SDS011;7735;49.144;8.668;2023-06-24T02:45:26;8.40;;;3.97;;
15266;SDS011;7735;49.144;8.668;2023-06-24T02:47:54;6.23;;;4.00;;
15266;SDS011;7735;49.144;8.668;2023-06-24T02:50:22;7.60;;;3.97;;
15266;SDS011;7735;49.144;8.668;2023-06-24T02:52:49;5.40;;;3.87;;
15266;SDS011;7735;49.144;8.668;2023-06-24T02:55:19;5.23;;;3.60;;
15266;SDS011;7735;49.144;8.668;2023-06-24T02:57:46;7.90;;;4.00;;
15266;SDS011;7735;49.144;8.668;2023-06-24T03:00:14;5.67;;;3.77;;
15266;SDS011;7735;49.144;8.668;2023-06-24T03:02:41;7.90;;;4.10;;
15266;SDS011;7735;49.144;8.668;2023-06-24T03:05:09;5.93;;;4.13;;
15266;SDS011;7735;49.144;8.668;2023-06-24T03:07:36;9.10;;;4.40;;
15266;SDS011;7735;49.144;8.668;2023-06-24T03:10:04;5.67;;;4.00;;
15266;SDS011;7735;49.144;8.668;2023-06-24T03:12:33;6.93;;;3.80;;
15266;SDS011;7735;49.144;8.668;2023-06-24T03:15:00;8.20;;;4.27;;
15266;SDS011;7735;49.144;8.668;2023-06-24T03:17:26;7.73;;;4.00;;
15266;SDS011;7735;49.144;8.668;2023-06-24T03:19:53;6.03;;;3.70;;
15266;SDS011;7735;49.144;8.668;2023-06-24T03:22:21;5.97;;;3.73;;
15266;SDS011;7735;49.144;8.668;2023-06-24T03:24:48;10.33;;;3.83;;
15266;SDS011;7735;49.144;8.668;2023-06-24T03:27:16;8.27;;;4.00;;
15266;SDS011;7735;49.144;8.668;2023-06-24T03:29:45;7.20;;;3.70;;
15266;SDS011;7735;49.144;8.668;2023-06-24T03:32:11;7.33;;;3.80;;
15266;SDS011;7735;49.144;8.668;2023-06-24T03:34:38;6.47;;;4.27;;
15266;SDS011;7735;49.144;8.668;2023-06-24T03:37:04;6.37;;;3.97;;
15266;SDS011;7735;49.144;8.668;2023-06-24T03:39:31;5.77;;;3.87;;
15266;SDS011;7735;49.144;8.668;2023-06-24T03:41:58;5.00;;;4.13;;
15266;SDS011;7735;49.144;8.668;2023-06-24T03:44:24;5.43;;;3.80;;
15266;SDS011;7735;49.144;8.668;2023-06-24T03:46:52;6.93;;;3.47;;
15266;SDS011;7735;49.144;8.668;2023-06-24T03:49:19;5.57;;;3.90;;
15266;SDS011;7735;49.144;8.668;2023-06-24T03:51:45;7.93;;;4.07;;
15266;SDS011;7735;49.144;8.668;2023-06-24T03:54:12;7.30;;;4.23;;
15266;SDS011;7735;49.144;8.668;2023-06-24T03:56:39;6.47;;;3.77;;
15266;SDS011;7735;49.144;8.668;2023-06-24T03:59:05;6.87;;;3.97;;
15266;SDS011;7735;49.144;8.668;2023-06-24T04:01:32;5.93;;;3.80;;
15266;SDS011;7735;49.144;8.668;2023-06-24T04:04:02;5.70;;;3.80;;
15266;SDS011;7735;49.144;8.668;2023-06-24T04:06:29;5.30;;;3.90;;
15266;SDS011;7735;49.144;8.668;2023-06-24T04:08:56;6.13;;;3.90;;
15266;SDS011;7735;49.144;8.668;2023-06-24T04:11:22;5.80;;;4.13;;
15266;SDS011;7735;49.144;8.668;2023-06-24T04:13:49;9.13;;;3.97;;
15266;SDS011;7735;49.144;8.668;2023-06-24T04:16:16;6.07;;;3.90;;
15266;SDS011;7735;49.144;8.668;2023-06-24T04:18:43;8.23;;;4.20;;
15266;SDS011;7735;49.144;8.668;2023-06-24T04:21:11;5.77;;;3.80;;
15266;SDS011;7735;49.144;8.668;2023-06-24T04:23:37;6.30;;;3.70;;
15266;SDS011;7735;49.144;8.668;2023-06-24T04:26:04;6.50;;;3.97;;
15266;SDS011;7735;49.144;8.668;2023-06-24T04:28:30;5.00;;;3.70;;
15266;SDS011;7735;49.144;8.668;2023-06-24T04:30:57;7.60;;;4.00;;
15266;SDS011;7735;49.144;8.668;2023-06-24T04:33:24;6.00;;;3.73;;
15266;SDS011;7735;49.144;8.668;2023-06-24T04:35:50;8.93;;;4.40;;
15266;SDS011;7735;49.144;8.668;2023-06-24T04:38:18;6.17;;;4.07;;
15266;SDS011;7735;49.144;8.668;2023-06-24T04:40:45;10.90;;;4.43;;
15266;SDS011;7735;49.144;8.668;2023-06-24T04:43:12;5.80;;;3.83;;
15266;SDS011;7735;49.144;8.668;2023-06-24T04:45:38;7.23;;;3.80;;
15266;SDS011;7735;49.144;8.668;2023-06-24T04:48:05;5.83;;;3.90;;
15266;SDS011;7735;49.144;8.668;2023-06-24T04:50:32;6.00;;;3.90;;
15266;SDS011;7735;49.144;8.668;2023-06-24T04:52:58;4.50;;;3.90;;
15266;SDS011;7735;49.144;8.668;2023-06-24T04:55:28;7.57;;;4.10;;
15266;SDS011;7735;49.144;8.668;2023-06-24T04:57:56;6.70;;;3.73;;
15266;SDS011;7735;49.144;8.668;2023-06-24T05:00:23;7.27;;;3.70;;
15266;SDS011;7735;49.144;8.668;2023-06-24T05:02:49;5.77;;;3.83;;
15266;SDS011;7735;49.144;8.668;2023-06-24T05:05:17;5.67;;;4.70;;
15266;SDS011;7735;49.144;8.668;2023-06-24T05:07:44;10.30;;;3.77;;
15266;SDS011;7735;49.144;8.668;2023-06-24T05:10:10;6.73;;;4.40;;
15266;SDS011;7735;49.144;8.668;2023-06-24T05:12:38;7.63;;;4.00;;
15266;SDS011;7735;49.144;8.668;2023-06-24T05:15:05;5.70;;;3.77;;
15266;SDS011;7735;49.144;8.668;2023-06-24T05:17:32;6.13;;;3.93;;
15266;SDS011;7735;49.144;8.668;2023-06-24T05:19:59;5.50;;;3.90;;
15266;SDS011;7735;49.144;8.668;2023-06-24T05:22:26;6.63;;;3.63;;
15266;SDS011;7735;49.144;8.668;2023-06-24T05:24:52;6.67;;;3.53;;
15266;SDS011;7735;49.144;8.668;2023-06-24T05:27:19;6.17;;;3.97;;
15266;SDS011;7735;49.144;8.668;2023-06-24T05:29:46;6.43;;;4.53;;
15266;SDS011;7735;49.144;8.668;2023-06-24T05:32:13;7.73;;;4.33;;
15266;SDS011;7735;49.144;8.668;2023-06-24T05:34:42;5.13;;;4.17;;
15266;SDS011;7735;49.144;8.668;2023-06-24T05:37:09;6.20;;;4.47;;
15266;SDS011;7735;49.144;8.668;2023-06-24T05:39:35;6.87;;;4.03;;
15266;SDS011;7735;49.144;8.668;2023-06-24T05:42:02;7.90;;;4.53;;
15266;SDS011;7735;49.144;8.668;2023-06-24T05:44:29;6.67;;;4.50;;
15266;SDS011;7735;49.144;8.668;2023-06-24T05:46:57;7.20;;;4.30;;
15266;SDS011;7735;49.144;8.668;2023-06-24T05:49:24;6.97;;;4.10;;
15266;SDS011;7735;49.144;8.668;2023-06-24T05:51:50;6.00;;;4.03;;
15266;SDS011;7735;49.144;8.668;2023-06-24T05:54:17;6.07;;;4.23;;
15266;SDS011;7735;49.144;8.668;2023-06-24T05:56:44;6.47;;;4.10;;
15266;SDS011;7735;49.144;8.668;2023-06-24T05:59:10;5.23;;;3.93;;
15266;SDS011;7735;49.144;8.668;2023-06-24T06:01:37;6.57;;;4.17;;
15266;SDS011;7735;49.144;8.668;2023-06-24T06:04:05;5.73;;;3.80;;
15266;SDS011;7735;49.144;8.668;2023-06-24T06:06:31;5.70;;;4.00;;
15266;SDS011;7735;49.144;8.668;2023-06-24T06:08:58;8.80;;;4.33;;
15266;SDS011;7735;49.144;8.668;2023-06-24T06:11:25;6.07;;;4.23;;
15266;SDS011;7735;49.144;8.668;2023-06-24T06:13:51;4.43;;;3.53;;
15266;SDS011;7735;49.144;8.668;2023-06-24T06:16:18;5.73;;;3.23;;
15266;SDS011;7735;49.144;8.668;2023-06-24T06:18:45;5.03;;;3.57;;
15266;SDS011;7735;49.144;8.668;2023-06-24T06:21:13;6.40;;;3.73;;
15266;SDS011;7735;49.144;8.668;2023-06-24T06:23:39;5.53;;;3.63;;
15266;SDS011;7735;49.144;8.668;2023-06-24T06:26:06;5.97;;;4.03;;
15266;SDS011;7735;49.144;8.668;2023-06-24T06:28:32;8.67;;;3.77;;
15266;SDS011;7735;49.144;8.668;2023-06-24T06:31:08;6.00;;;3.70;;
15266;SDS011;7735;49.144;8.668;2023-06-24T06:33:35;4.80;;;3.87;;
15266;SDS011;7735;49.144;8.668;2023-06-24T06:36:01;7.37;;;4.20;;
15266;SDS011;7735;49.144;8.668;2023-06-24T06:38:29;10.13;;;4.00;;
15266;SDS011;7735;49.144;8.668;2023-06-24T06:40:56;6.43;;;3.70;;
15266;SDS011;7735;49.144;8.668;2023-06-24T06:43:23;6.50;;;3.90;;
15266;SDS011;7735;49.144;8.668;2023-06-24T06:45:49;5.30;;;3.63;;
15266;SDS011;7735;49.144;8.668;2023-06-24T06:48:16;7.80;;;4.30;;
15266;SDS011;7735;49.144;8.668;2023-06-24T06:50:44;11.67;;;4.10;;
15266;SDS011;7735;49.144;8.668;2023-06-24T06:53:11;5.22;;;4.07;;
15266;SDS011;7735;49.144;8.668;2023-06-24T06:55:39;6.63;;;4.33;;
15266;SDS011;7735;49.144;8.668;2023-06-24T06:58:07;4.80;;;3.70;;
15266;SDS011;7735;49.144;8.668;2023-06-24T07:00:34;5.87;;;4.40;;
15266;SDS011;7735;49.144;8.668;2023-06-24T07:03:01;5.70;;;4.03;;
15266;SDS011;7735;49.144;8.668;2023-06-24T07:05:27;5.67;;;4.03;;
15266;SDS011;7735;49.144;8.668;2023-06-24T07:07:54;8.90;;;4.30;;
15266;SDS011;7735;49.144;8.668;2023-06-24T07:10:20;7.83;;;4.60;;
15266;SDS011;7735;49.144;8.668;2023-06-24T07:12:48;7.43;;;4.40;;
15266;SDS011;7735;49.144;8.668;2023-06-24T07:15:16;6.70;;;4.27;;
15266;SDS011;7735;49.144;8.668;2023-06-24T07:17:44;5.97;;;3.93;;
15266;SDS011;7735;49.144;8.668;2023-06-24T07:20:11;7.33;;;3.80;;
15266;SDS011;7735;49.144;8.668;2023-06-24T07:22:37;4.93;;;3.93;;
15266;SDS011;7735;49.144;8.668;2023-06-24T07:25:04;5.83;;;4.40;;
15266;SDS011;7735;49.144;8.668;2023-06-24T07:27:31;5.67;;;3.97;;
15266;SDS011;7735;49.144;8.668;2023-06-24T07:29:59;5.47;;;3.90;;
15266;SDS011;7735;49.144;8.668;2023-06-24T07:32:25;6.07;;;4.10;;
15266;SDS011;7735;49.144;8.668;2023-06-24T07:34:52;4.90;;;3.87;;
15266;SDS011;7735;49.144;8.668;2023-06-24T07:37:19;9.63;;;4.13;;
15266;SDS011;7735;49.144;8.668;2023-06-24T07:39:45;8.10;;;3.63;;
15266;SDS011;7735;49.144;8.668;2023-06-24T07:42:12;7.17;;;4.67;;
15266;SDS011;7735;49.144;8.668;2023-06-24T07:44:43;5.80;;;3.80;;
15266;SDS011;7735;49.144;8.668;2023-06-24T07:47:11;6.10;;;4.00;;
15266;SDS011;7735;49.144;8.668;2023-06-24T07:49:38;6.10;;;4.03;;
15266;SDS011;7735;49.144;8.668;2023-06-24T07:52:05;5.53;;;3.57;;
15266;SDS011;7735;49.144;8.668;2023-06-24T07:54:32;5.20;;;3.80;;
15266;SDS011;7735;49.144;8.668;2023-06-24T07:56:58;6.50;;;3.77;;
15266;SDS011;7735;49.144;8.668;2023-06-24T07:59:25;8.13;;;6.50;;
15266;SDS011;7735;49.144;8.668;2023-06-24T08:01:51;6.87;;;4.23;;
15266;SDS011;7735;49.144;8.668;2023-06-24T08:04:20;5.40;;;3.10;;
15266;SDS011;7735;49.144;8.668;2023-06-24T08:06:46;6.13;;;3.63;;
15266;SDS011;7735;49.144;8.668;2023-06-24T08:09:13;5.00;;;3.50;;
15266;SDS011;7735;49.144;8.668;2023-06-24T08:11:39;5.57;;;3.90;;
15266;SDS011;7735;49.144;8.668;2023-06-24T08:14:06;3.87;;;3.07;;
15266;SDS011;7735;49.144;8.668;2023-06-24T08:16:33;4.67;;;3.57;;
15266;SDS011;7735;49.144;8.668;2023-06-24T08:18:59;5.53;;;3.67;;
15266;SDS011;7735;49.144;8.668;2023-06-24T08:21:27;4.13;;;3.17;;
15266;SDS011;7735;49.144;8.668;2023-06-24T08:23:54;4.03;;;2.83;;
15266;SDS011;7735;49.144;8.668;2023-06-24T08:26:21;4.47;;;3.50;;
15266;SDS011;7735;49.144;8.668;2023-06-24T08:28:48;8.40;;;3.40;;
15266;SDS011;7735;49.144;8.668;2023-06-24T08:31:14;4.50;;;3.53;;
15266;SDS011;7735;49.144;8.668;2023-06-24T08:33:43;4.23;;;3.47;;
15266;SDS011;7735;49.144;8.668;2023-06-24T08:36:11;5.00;;;3.50;;
15266;SDS011;7735;49.144;8.668;2023-06-24T08:38:39;4.80;;;3.40;;
15266;SDS011;7735;49.144;8.668;2023-06-24T08:41:06;8.30;;;3.10;;
15266;SDS011;7735;49.144;8.668;2023-06-24T08:43:33;4.00;;;2.80;;
15266;SDS011;7735;49.144;8.668;2023-06-24T08:46:00;3.83;;;3.17;;
15266;SDS011;7735;49.144;8.668;2023-06-24T08:48:26;5.10;;;3.20;;
15266;SDS011;7735;49.144;8.668;2023-06-24T08:50:56;5.73;;;3.37;;
15266;SDS011;7735;49.144;8.668;2023-06-24T08:53:27;6.03;;;3.20;;
15266;SDS011;7735;49.144;8.668;2023-06-24T08:55:56;4.47;;;2.87;;
15266;SDS011;7735;49.144;8.668;2023-06-24T08:58:23;3.47;;;2.93;;
15266;SDS011;7735;49.144;8.668;2023-06-24T09:00:50;3.73;;;2.83;;
15266;SDS011;7735;49.144;8.668;2023-06-24T09:03:17;3.97;;;3.10;;
15266;SDS011;7735;49.144;8.668;2023-06-24T09:05:44;3.47;;;3.03;;
15266;SDS011;7735;49.144;8.668;2023-06-24T09:08:10;4.17;;;2.87;;
15266;SDS011;7735;49.144;8.668;2023-06-24T09:10:37;4.23;;;3.03;;
15266;SDS011;7735;49.144;8.668;2023-06-24T09:13:06;5.10;;;3.37;;
15266;SDS011;7735;49.144;8.668;2023-06-24T09:15:33;5.33;;;3.30;;
15266;SDS011;7735;49.144;8.668;2023-06-24T09:18:01;4.00;;;2.73;;
15266;SDS011;7735;49.144;8.668;2023-06-24T09:20:28;3.47;;;2.90;;
15266;SDS011;7735;49.144;8.668;2023-06-24T09:22:57;4.53;;;3.20;;
15266;SDS011;7735;49.144;8.668;2023-06-24T09:25:25;3.93;;;2.90;;
15266;SDS011;7735;49.144;8.668;2023-06-24T09:27:52;4.03;;;3.10;;
15266;SDS011;7735;49.144;8.668;2023-06-24T09:30:22;6.37;;;3.00;;
15266;SDS011;7735;49.144;8.668;2023-06-24T09:32:50;4.03;;;3.23;;
15266;SDS011;7735;49.144;8.668;2023-06-24T09:35:17;4.37;;;2.93;;
15266;SDS011;7735;49.144;8.668;2023-06-24T09:37:48;4.70;;;3.00;;
15266;SDS011;7735;49.144;8.668;2023-06-24T09:40:16;3.90;;;3.40;;
15266;SDS011;7735;49.144;8.668;2023-06-24T09:42:48;4.53;;;2.90;;
15266;SDS011;7735;49.144;8.668;2023-06-24T09:45:18;4.20;;;2.77;;
15266;SDS011;7735;49.144;8.668;2023-06-24T09:47:47;3.87;;;2.73;;
15266;SDS011;7735;49.144;8.668;2023-06-24T09:50:14;3.43;;;2.80;;
15266;SDS011;7735;49.144;8.668;2023-06-24T09:52:40;4.23;;;3.10;;
15266;SDS011;7735;49.144;8.668;2023-06-24T09:55:13;3.70;;;3.00;;
15266;SDS011;7735;49.144;8.668;2023-06-24T09:57:42;4.83;;;3.73;;
15266;SDS011;7735;49.144;8.668;2023-06-24T10:00:12;4.10;;;2.67;;
15266;SDS011;7735;49.144;8.668;2023-06-24T10:02:41;4.37;;;2.67;;
15266;SDS011;7735;49.144;8.668;2023-06-24T10:05:10;4.03;;;2.60;;
15266;SDS011;7735;49.144;8.668;2023-06-24T10:07:38;5.40;;;2.83;;
15266;SDS011;7735;49.144;8.668;2023-06-24T10:10:06;3.97;;;3.00;;
15266;SDS011;7735;49.144;8.668;2023-06-24T10:12:35;3.87;;;2.70;;
15266;SDS011;7735;49.144;8.668;2023-06-24T10:15:02;3.83;;;2.73;;
15266;SDS011;7735;49.144;8.668;2023-06-24T10:17:30;3.40;;;2.50;;
15266;SDS011;7735;49.144;8.668;2023-06-24T10:19:58;3.77;;;2.73;;
15266;SDS011;7735;49.144;8.668;2023-06-24T10:22:31;5.07;;;3.00;;
15266;SDS011;7735;49.144;8.668;2023-06-24T10:24:59;4.73;;;3.40;;
15266;SDS011;7735;49.144;8.668;2023-06-24T10:27:26;3.60;;;2.87;;
15266;SDS011;7735;49.144;8.668;2023-06-24T10:29:57;3.57;;;2.90;;
15266;SDS011;7735;49.144;8.668;2023-06-24T10:32:29;3.57;;;2.70;;
15266;SDS011;7735;49.144;8.668;2023-06-24T10:35:06;3.23;;;2.63;;
15266;SDS011;7735;49.144;8.668;2023-06-24T10:37:34;2.90;;;2.60;;
15266;SDS011;7735;49.144;8.668;2023-06-24T10:40:01;3.60;;;2.67;;
15266;SDS011;7735;49.144;8.668;2023-06-24T10:42:32;5.40;;;3.07;;
15266;SDS011;7735;49.144;8.668;2023-06-24T10:45:12;3.67;;;2.70;;
15266;SDS011;7735;49.144;8.668;2023-06-24T10:47:41;3.73;;;2.80;;
15266;SDS011;7735;49.144;8.668;2023-06-24T10:50:14;4.37;;;2.77;;
15266;SDS011;7735;49.144;8.668;2023-06-24T10:52:48;4.47;;;2.77;;
15266;SDS011;7735;49.144;8.668;2023-06-24T10:55:21;4.37;;;2.70;;
15266;SDS011;7735;49.144;8.668;2023-06-24T10:57:52;4.87;;;2.60;;
15266;SDS011;7735;49.144;8.668;2023-06-24T11:00:21;3.90;;;2.90;;
15266;SDS011;7735;49.144;8.668;2023-06-24T11:02:50;3.20;;;2.70;;
15266;SDS011;7735;49.144;8.668;2023-06-24T11:05:19;4.97;;;2.87;;
15266;SDS011;7735;49.144;8.668;2023-06-24T11:07:47;4.10;;;2.80;;
15266;SDS011;7735;49.144;8.668;2023-06-24T11:10:17;3.93;;;2.67;;
15266;SDS011;7735;49.144;8.668;2023-06-24T11:12:45;4.77;;;2.73;;
15266;SDS011;7735;49.144;8.668;2023-06-24T11:15:14;3.40;;;2.80;;
15266;SDS011;7735;49.144;8.668;2023-06-24T11:17:50;4.73;;;3.20;;
15266;SDS011;7735;49.144;8.668;2023-06-24T11:20:23;3.83;;;2.77;;
15266;SDS011;7735;49.144;8.668;2023-06-24T11:23:01;3.77;;;2.60;;
15266;SDS011;7735;49.144;8.668;2023-06-24T11:25:27;4.90;;;2.80;;
15266;SDS011;7735;49.144;8.668;2023-06-24T11:27:56;4.83;;;3.17;;
15266;SDS011;7735;49.144;8.668;2023-06-24T11:30:33;6.30;;;2.90;;
15266;SDS011;7735;49.144;8.668;2023-06-24T11:33:00;4.50;;;2.70;;
15266;SDS011;7735;49.144;8.668;2023-06-24T11:35:27;3.10;;;2.50;;
15266;SDS011;7735;49.144;8.668;2023-06-24T11:38:02;2.85;;;2.22;;
15266;SDS011;7735;49.144;8.668;2023-06-24T11:40:30;3.47;;;2.72;;
15266;SDS011;7735;49.144;8.668;2023-06-24T11:43:01;3.35;;;2.53;;
15266;SDS011;7735;49.144;8.668;2023-06-24T11:45:31;2.60;;;2.40;;
15266;SDS011;7735;49.144;8.668;2023-06-24T11:48:03;3.10;;;2.50;;
15266;SDS011;7735;49.144;8.668;2023-06-24T11:50:33;4.65;;;2.60;;
15266;SDS011;7735;49.144;8.668;2023-06-24T11:53:24;4.68;;;2.88;;
15266;SDS011;7735;49.144;8.668;2023-06-24T11:56:11;3.38;;;2.65;;
15266;SDS011;7735;49.144;8.668;2023-06-24T11:58:41;4.60;;;2.80;;
15266;SDS011;7735;49.144;8.668;2023-06-24T12:01:10;3.60;;;2.80;;
15266;SDS011;7735;49.144;8.668;2023-06-24T12:03:44;4.05;;;3.00;;
15266;SDS011;7735;49.144;8.668;2023-06-24T12:06:11;2.90;;;2.42;;
15266;SDS011;7735;49.144;8.668;2023-06-24T12:08:39;4.43;;;2.63;;
15266;SDS011;7735;49.144;8.668;2023-06-24T12:11:14;7.22;;;2.38;;
15266;SDS011;7735;49.144;8.668;2023-06-24T12:13:41;3.20;;;2.60;;
15266;SDS011;7735;49.144;8.668;2023-06-24T12:16:11;3.40;;;2.53;;
15266;SDS011;7735;49.144;8.668;2023-06-24T12:18:50;3.88;;;2.42;;
15266;SDS011;7735;49.144;8.668;2023-06-24T12:21:17;2.83;;;2.50;;
15266;SDS011;7735;49.144;8.668;2023-06-24T12:26:32;2.95;;;2.65;;
15266;SDS011;7735;49.144;8.668;2023-06-24T12:28:59;3.83;;;3.05;;
15266;SDS011;7735;49.144;8.668;2023-06-24T12:31:26;4.53;;;2.50;;
15266;SDS011;7735;49.144;8.668;2023-06-24T12:33:55;2.60;;;2.40;;
15266;SDS011;7735;49.144;8.668;2023-06-24T12:36:28;2.72;;;2.15;;
15266;SDS011;7735;49.144;8.668;2023-06-24T12:38:56;3.63;;;2.75;;
15266;SDS011;7735;49.144;8.668;2023-06-24T12:41:24;4.95;;;2.90;;
15266;SDS011;7735;49.144;8.668;2023-06-24T12:44:01;4.05;;;2.50;;
15266;SDS011;7735;49.144;8.668;2023-06-24T12:46:30;3.28;;;2.40;;
15266;SDS011;7735;49.144;8.668;2023-06-24T12:48:57;3.60;;;2.30;;
15266;SDS011;7735;49.144;8.668;2023-06-24T12:51:35;4.03;;;2.45;;
15266;SDS011;7735;49.144;8.668;2023-06-24T12:54:11;4.32;;;2.88;;
15266;SDS011;7735;49.144;8.668;2023-06-24T12:56:39;5.10;;;2.50;;
15266;SDS011;7735;49.144;8.668;2023-06-24T12:59:07;3.35;;;2.42;;
15266;SDS011;7735;49.144;8.668;2023-06-24T13:01:49;4.20;;;2.65;;
15266;SDS011;7735;49.144;8.668;2023-06-24T13:04:18;3.47;;;2.90;;
15266;SDS011;7735;49.144;8.668;2023-06-24T13:06:49;3.33;;;2.58;;
15266;SDS011;7735;49.144;8.668;2023-06-24T13:09:26;3.88;;;3.05;;
15266;SDS011;7735;49.144;8.668;2023-06-24T13:11:54;3.40;;;2.55;;
15266;SDS011;7735;49.144;8.668;2023-06-24T13:14:21;3.63;;;2.70;;
15266;SDS011;7735;49.144;8.668;2023-06-24T13:16:50;2.90;;;2.40;;
15266;SDS011;7735;49.144;8.668;2023-06-24T13:19:21;5.00;;;2.72;;
15266;SDS011;7735;49.144;8.668;2023-06-24T13:21:49;3.40;;;2.70;;
15266;SDS011;7735;49.144;8.668;2023-06-24T13:24:17;3.10;;;2.22;;
15266;SDS011;7735;49.144;8.668;2023-06-24T13:26:50;3.88;;;2.80;;
15266;SDS011;7735;49.144;8.668;2023-06-24T13:29:28;3.00;;;2.55;;
15266;SDS011;7735;49.144;8.668;2023-06-24T13:31:59;3.80;;;2.70;;
15266;SDS011;7735;49.144;8.668;2023-06-24T13:34:28;3.60;;;2.72;;
15266;SDS011;7735;49.144;8.668;2023-06-24T13:36:55;5.35;;;2.35;;
15266;SDS011;7735;49.144;8.668;2023-06-24T13:39:25;3.88;;;2.67;;
15266;SDS011;7735;49.144;8.668;2023-06-24T13:41:52;3.70;;;2.38;;
15266;SDS011;7735;49.144;8.668;2023-06-24T13:44:25;5.13;;;2.70;;
15266;SDS011;7735;49.144;8.668;2023-06-24T13:47:08;4.45;;;2.80;;
15266;SDS011;7735;49.144;8.668;2023-06-24T13:53:28;3.20;;;2.50;;
15266;SDS011;7735;49.144;8.668;2023-06-24T13:56:25;3.25;;;2.47;;
15266;SDS011;7735;49.144;8.668;2023-06-24T13:59:05;4.28;;;2.53;;
15266;SDS011;7735;49.144;8.668;2023-06-24T14:01:50;3.63;;;2.78;;
15266;SDS011;7735;49.144;8.668;2023-06-24T14:04:22;3.10;;;2.50;;
15266;SDS011;7735;49.144;8.668;2023-06-24T14:06:49;2.78;;;2.35;;
15266;SDS011;7735;49.144;8.668;2023-06-24T14:09:16;3.72;;;2.53;;
15266;SDS011;7735;49.144;8.668;2023-06-24T14:11:42;4.85;;;2.78;;
15266;SDS011;7735;49.144;8.668;2023-06-24T14:14:18;3.42;;;2.80;;
15266;SDS011;7735;49.144;8.668;2023-06-24T14:16:45;3.13;;;2.50;;
15266;SDS011;7735;49.144;8.668;2023-06-24T14:19:15;4.82;;;2.97;;
15266;SDS011;7735;49.144;8.668;2023-06-24T14:21:53;4.85;;;3.58;;
15266;SDS011;7735;49.144;8.668;2023-06-24T14:24:19;4.68;;;3.20;;
15266;SDS011;7735;49.144;8.668;2023-06-24T14:26:49;4.90;;;3.50;;
15266;SDS011;7735;49.144;8.668;2023-06-24T14:29:18;3.80;;;2.97;;
15266;SDS011;7735;49.144;8.668;2023-06-24T14:31:53;3.83;;;2.90;;
15266;SDS011;7735;49.144;8.668;2023-06-24T14:34:30;3.30;;;2.50;;
15266;SDS011;7735;49.144;8.668;2023-06-24T14:37:01;4.22;;;2.47;;
15266;SDS011;7735;49.144;8.668;2023-06-24T14:39:28;3.17;;;2.35;;
15266;SDS011;7735;49.144;8.668;2023-06-24T14:41:54;2.50;;;2.22;;
15266;SDS011;7735;49.144;8.668;2023-06-24T14:44:46;3.85;;;2.80;;
15266;SDS011;7735;49.144;8.668;2023-06-24T14:47:14;3.83;;;2.67;;
15266;SDS011;7735;49.144;8.668;2023-06-24T14:49:47;3.10;;;2.22;;
15266;SDS011;7735;49.144;8.668;2023-06-24T14:52:19;4.40;;;3.40;;
15266;SDS011;7735;49.144;8.668;2023-06-24T14:54:47;3.95;;;2.63;;
15266;SDS011;7735;49.144;8.668;2023-06-24T14:57:14;3.67;;;2.78;;
15266;SDS011;7735;49.144;8.668;2023-06-24T14:59:41;3.33;;;2.55;;
15266;SDS011;7735;49.144;8.668;2023-06-24T15:05:01;3.60;;;2.67;;
15266;SDS011;7735;49.144;8.668;2023-06-24T15:07:28;3.10;;;2.67;;
15266;SDS011;7735;49.144;8.668;2023-06-24T15:09:55;3.33;;;2.60;;
15266;SDS011;7735;49.144;8.668;2023-06-24T15:12:22;3.22;;;2.63;;
15266;SDS011;7735;49.144;8.668;2023-06-24T15:14:50;4.30;;;2.70;;
15266;SDS011;7735;49.144;8.668;2023-06-24T15:17:18;4.43;;;2.53;;
15266;SDS011;7735;49.144;8.668;2023-06-24T15:19:46;3.75;;;2.72;;